Time;durP1;ratioP1;P1;durP2;ratioP2;P2;SDS_P1;SDS_P2;PMS_P1;PMS_P2;Temp;Humidity;BMP_temperature;BMP_pressure;BME280_temperature;BME280_humidity;BME280_pressure;Samples;Min_cycle;Max_cycle;Signal;HPM_P1;HPM_P2
2023/01/24 00:00:26;;;;;;;61.85;43.30;;;;;;;;;;5051706;28;20048;-66
2023/01/24 00:02:53;;;;;;;59.30;42.63;;;;;;;;;;5051707;28;20420;-66
2023/01/24 00:05:20;;;;;;;58.10;41.97;;;;;;;;;;5051689;28;20075;-66
2023/01/24 00:07:46;;;;;;;60.97;43.90;;;;;;;;;;5051769;28;20132;-66
2023/01/24 00:10:13;;;;;;;61.03;43.45;;;;;;;;;;5051786;28;20049;-66
2023/01/24 00:12:39;;;;;;;61.13;42.10;;;;;;;;;;5051675;28;20052;-66
2023/01/24 00:15:06;;;;;;;56.72;41.30;;;;;;;;;;5051599;28;20088;-66
2023/01/24 00:17:32;;;;;;;52.22;41.10;;;;;;;;;;5051469;28;20481;-66
2023/01/24 00:19:59;;;;;;;56.08;41.35;;;;;;;;;;5051714;28;20132;-66
2023/01/24 00:22:25;;;;;;;54.10;41.28;;;;;;;;;;5051429;28;20065;-66
2023/01/24 00:24:51;;;;;;;57.33;41.38;;;;;;;;;;5051617;28;20048;-66
2023/01/24 00:27:18;;;;;;;56.78;40.47;;;;;;;;;;5039057;28;20056;-66
2023/01/24 00:29:44;;;;;;;49.47;37.85;;;;;;;;;;5050368;28;20399;-66
2023/01/24 00:32:10;;;;;;;52.90;38.10;;;;;;;;;;5050986;28;20064;-66
2023/01/24 00:34:37;;;;;;;51.60;37.92;;;;;;;;;;5050859;28;20102;-66
2023/01/24 00:37:03;;;;;;;52.53;39.95;;;;;;;;;;5050990;28;20041;-66
2023/01/24 00:39:29;;;;;;;50.60;37.75;;;;;;;;;;5049631;28;20522;-66
2023/01/24 00:41:56;;;;;;;53.92;37.20;;;;;;;;;;5051214;28;20083;-66
2023/01/24 00:44:22;;;;;;;51.63;35.80;;;;;;;;;;5051322;28;20087;-66
2023/01/24 00:46:52;;;;;;;50.28;35.53;;;;;;;;;;5051553;28;20461;-66
2023/01/24 00:49:19;;;;;;;49.47;32.50;;;;;;;;;;5051245;28;20475;-66
2023/01/24 00:51:45;;;;;;;49.55;34.10;;;;;;;;;;5050276;28;20045;-66
2023/01/24 00:54:12;;;;;;;44.28;33.15;;;;;;;;;;5051246;28;20484;-66
2023/01/24 00:56:38;;;;;;;45.58;33.88;;;;;;;;;;5051195;28;20139;-66
2023/01/24 00:59:04;;;;;;;48.13;35.08;;;;;;;;;;5051333;28;20049;-66
2023/01/24 01:01:31;;;;;;;43.72;33.92;;;;;;;;;;5051145;28;20053;-66
2023/01/24 01:03:57;;;;;;;48.85;34.47;;;;;;;;;;5051151;28;20053;-66
2023/01/24 01:06:24;;;;;;;44.08;32.25;;;;;;;;;;5051086;28;20084;-66
2023/01/24 01:08:51;;;;;;;44.70;32.33;;;;;;;;;;5051321;28;20049;-66
2023/01/24 01:11:18;;;;;;;47.17;32.85;;;;;;;;;;5051114;28;20037;-66
2023/01/24 01:13:48;;;;;;;43.85;32.85;;;;;;;;;;5051004;28;20049;-66
2023/01/24 01:16:16;;;;;;;40.15;31.05;;;;;;;;;;5049993;28;20055;-66
2023/01/24 01:18:42;;;;;;;44.50;33.28;;;;;;;;;;5050028;28;20056;-66
2023/01/24 01:21:11;;;;;;;47.13;33.20;;;;;;;;;;5050736;28;20564;-66
2023/01/24 01:23:37;;;;;;;43.75;33.50;;;;;;;;;;5051013;28;20052;-66
2023/01/24 01:26:05;;;;;;;47.45;33.35;;;;;;;;;;5050925;28;20052;-66
2023/01/24 01:28:31;;;;;;;45.65;32.97;;;;;;;;;;5051166;28;20052;-66
2023/01/24 01:30:58;;;;;;;46.33;32.05;;;;;;;;;;5051194;28;20103;-66
2023/01/24 01:33:24;;;;;;;43.85;32.45;;;;;;;;;;5051086;28;20119;-66
2023/01/24 01:35:52;;;;;;;43.78;32.75;;;;;;;;;;5051119;28;20123;-66
2023/01/24 01:38:18;;;;;;;44.00;31.97;;;;;;;;;;5050779;28;20057;-66
2023/01/24 01:40:45;;;;;;;42.03;32.17;;;;;;;;;;5050667;28;20057;-66
2023/01/24 01:43:15;;;;;;;46.35;33.40;;;;;;;;;;5050925;28;20053;-66
2023/01/24 01:45:42;;;;;;;47.28;34.10;;;;;;;;;;5052485;28;20049;-66
2023/01/24 01:48:27;;;;;;;48.85;34.80;;;;;;;;;;5054547;28;20045;-66
2023/01/24 01:51:00;;;;;;;44.85;34.55;;;;;;;;;;5052985;28;20063;-66
2023/01/24 01:53:29;;;;;;;49.17;33.58;;;;;;;;;;5049710;28;20056;-66
2023/01/24 01:55:59;;;;;;;46.97;35.28;;;;;;;;;;5054078;28;20127;-66
2023/01/24 01:58:25;;;;;;;46.42;33.88;;;;;;;;;;5054059;28;20501;-66
2023/01/24 02:00:51;;;;;;;41.75;32.42;;;;;;;;;;5053958;28;20049;-66
2023/01/24 02:03:39;;;;;;;46.75;32.42;;;;;;;;;;5054305;28;20044;-66
2023/01/24 02:06:06;;;;;;;;;;;;;;;;;;5054528;28;20085;-66
2023/01/24 02:08:33;;;;;;;47.47;33.28;;;;;;;;;;5054223;28;20007;-66
2023/01/24 02:13:46;;;;;;;45.88;32.88;;;;;;;;;;5054169;28;20053;-66
2023/01/24 02:16:14;;;;;;;47.92;34.38;;;;;;;;;;5053714;28;20547;-65
2023/01/24 02:18:41;;;;;;;;;;;;;;;;;;5054298;28;20091;-66
2023/01/24 02:21:09;;;;;;;45.88;31.50;;;;;;;;;;5053396;28;20376;-65
2023/01/24 02:23:39;;;;;;;46.55;31.20;;;;;;;;;;5053871;28;20103;-66
2023/01/24 02:26:05;;;;;;;45.42;31.10;;;;;;;;;;5053614;28;20495;-66
2023/01/24 02:28:32;;;;;;;42.50;31.52;;;;;;;;;;5025726;28;20061;-66
2023/01/24 02:30:59;;;;;;;42.53;31.58;;;;;;;;;;5053697;28;20453;-66
2023/01/24 02:33:27;;;;;;;44.63;31.77;;;;;;;;;;5052479;28;20396;-66
2023/01/24 02:36:13;;;;;;;44.07;30.03;;;;;;;;;;5052485;28;20127;-66
2023/01/24 02:38:40;;;;;;;41.42;28.92;;;;;;;;;;5053630;28;20047;-66
2023/01/24 02:41:07;;;;;;;45.53;31.05;;;;;;;;;;5053567;28;20057;-66
2023/01/24 02:43:39;;;;;;;44.80;31.42;;;;;;;;;;5053422;28;20049;-66
2023/01/24 02:46:05;;;;;;;44.95;31.15;;;;;;;;;;5053228;28;20049;-66
2023/01/24 02:48:32;;;;;;;45.17;30.52;;;;;;;;;;5053406;28;20110;-66
2023/01/24 02:53:43;;;;;;;41.67;29.00;;;;;;;;;;5053260;28;20124;-66
2023/01/24 02:58:55;;;;;;;43.40;30.13;;;;;;;;;;5053038;28;20124;-66
2023/01/24 03:01:22;;;;;;;43.10;28.13;;;;;;;;;;5053030;28;20123;-66
2023/01/24 03:03:49;;;;;;;40.70;27.60;;;;;;;;;;5052915;28;20060;-66
2023/01/24 03:06:16;;;;;;;40.53;28.08;;;;;;;;;;5052779;28;20099;-66
2023/01/24 03:08:43;;;;;;;38.80;27.65;;;;;;;;;;5053034;28;20083;-66
2023/01/24 03:11:10;;;;;;;38.35;27.65;;;;;;;;;;5052797;28;20120;-66
2023/01/24 03:35:53;;;;;;;43.60;28.92;;;;;;;;;;5052577;28;20800;-66
2023/01/24 03:41:08;;;;;;;42.13;31.00;;;;;;;;;;5052624;28;20060;-66
2023/01/24 03:43:34;;;;;;;38.47;29.55;;;;;;;;;;5052308;28;20049;-66
2023/01/24 03:46:00;;;;;;;44.67;30.02;;;;;;;;;;5052114;28;20500;-66
2023/01/24 03:48:34;;;;;;;42.22;29.42;;;;;;;;;;5051981;28;20501;-66
2023/01/24 03:53:45;;;;;;;43.40;29.63;;;;;;;;;;5045370;28;20572;-66
2023/01/24 03:56:12;;;;;;;42.50;29.73;;;;;;;;;;5050475;28;20045;-66
2023/01/24 03:58:38;;;;;;;45.22;30.83;;;;;;;;;;5052074;28;20044;-66
2023/01/24 04:01:05;;;;;;;41.30;29.90;;;;;;;;;;5051678;28;20481;-66
2023/01/24 04:03:32;;;;;;;41.17;29.02;;;;;;;;;;5051884;28;20053;-66
2023/01/24 04:05:58;;;;;;;40.87;30.30;;;;;;;;;;5051602;28;20076;-66
2023/01/24 04:08:25;;;;;;;40.92;29.30;;;;;;;;;;5050002;28;20049;-66
2023/01/24 04:10:51;;;;;;;42.08;30.27;;;;;;;;;;5051407;28;20052;-66
2023/01/24 04:13:18;;;;;;;39.80;28.73;;;;;;;;;;5051924;28;20414;-66
2023/01/24 04:15:44;;;;;;;39.58;29.20;;;;;;;;;;5051795;28;20045;-66
2023/01/24 04:18:11;;;;;;;42.83;29.67;;;;;;;;;;5050548;28;20124;-66
2023/01/24 04:20:38;;;;;;;39.87;28.53;;;;;;;;;;5050337;28;20053;-66
2023/01/24 04:23:05;;;;;;;40.50;29.17;;;;;;;;;;5051430;28;20044;-66
2023/01/24 04:25:32;;;;;;;44.10;28.20;;;;;;;;;;5051464;28;20052;-65
2023/01/24 04:27:58;;;;;;;37.53;27.42;;;;;;;;;;5051359;28;20048;-65
2023/01/24 04:30:25;;;;;;;41.13;28.55;;;;;;;;;;5051506;28;20049;-66
2023/01/24 04:32:51;;;;;;;38.00;27.13;;;;;;;;;;5051633;28;20041;-66
2023/01/24 04:35:19;;;;;;;39.15;29.08;;;;;;;;;;5051671;28;20049;-66
2023/01/24 04:37:46;;;;;;;39.83;28.50;;;;;;;;;;5051386;28;20048;-66
2023/01/24 04:40:14;;;;;;;39.42;27.77;;;;;;;;;;5051485;28;20052;-66
2023/01/24 04:42:41;;;;;;;38.72;29.42;;;;;;;;;;5050036;28;20556;-65
2023/01/24 04:45:08;;;;;;;37.60;27.95;;;;;;;;;;5051588;28;20503;-65
2023/01/24 04:47:34;;;;;;;38.27;26.10;;;;;;;;;;5051335;28;20063;-65
2023/01/24 04:50:01;;;;;;;33.65;25.98;;;;;;;;;;5049948;28;20405;-65
2023/01/24 04:52:27;;;;;;;40.78;27.63;;;;;;;;;;5051221;28;20128;-65
2023/01/24 04:54:54;;;;;;;37.50;26.65;;;;;;;;;;5051446;28;20081;-65
2023/01/24 04:57:20;;;;;;;35.40;27.13;;;;;;;;;;5051117;28;20048;-65
2023/01/24 04:59:46;;;;;;;39.85;28.20;;;;;;;;;;5051350;28;20132;-66
2023/01/24 05:02:13;;;;;;;39.80;27.50;;;;;;;;;;5051212;28;20389;-65
2023/01/24 05:04:39;;;;;;;39.17;26.58;;;;;;;;;;5042527;28;20127;-65
2023/01/24 05:07:06;;;;;;;39.28;27.58;;;;;;;;;;5044862;28;20164;-66
2023/01/24 05:09:32;;;;;;;43.72;28.30;;;;;;;;;;5051301;28;20415;-66
2023/01/24 05:11:58;;;;;;;33.30;24.20;;;;;;;;;;5051126;28;20045;-66
2023/01/24 05:14:25;;;;;;;32.60;24.02;;;;;;;;;;5051296;28;20041;-66
2023/01/24 05:16:51;;;;;;;30.23;21.38;;;;;;;;;;5051118;28;20052;-66
2023/01/24 05:19:17;;;;;;;34.65;23.88;;;;;;;;;;5050908;28;20045;-66
2023/01/24 05:21:44;;;;;;;31.40;22.65;;;;;;;;;;5054072;28;20068;-66
2023/01/24 05:24:10;;;;;;;33.92;24.63;;;;;;;;;;5054633;28;20049;-66
2023/01/24 05:26:37;;;;;;;32.92;23.90;;;;;;;;;;5054878;28;20092;-66
2023/01/24 05:29:03;;;;;;;34.47;24.63;;;;;;;;;;5054666;28;20053;-66
2023/01/24 05:31:29;;;;;;;34.05;24.27;;;;;;;;;;5053309;28;20501;-66
2023/01/24 05:33:56;;;;;;;35.38;25.25;;;;;;;;;;5054566;28;20052;-66
2023/01/24 05:36:23;;;;;;;29.98;23.77;;;;;;;;;;5054460;28;20257;-65
2023/01/24 05:38:50;;;;;;;33.92;24.23;;;;;;;;;;5054682;28;20084;-65
2023/01/24 05:41:17;;;;;;;31.83;23.52;;;;;;;;;;5054525;28;20045;-66
2023/01/24 05:43:44;;;;;;;34.25;23.80;;;;;;;;;;5054427;28;20576;-66
2023/01/24 05:46:15;;;;;;;35.60;25.48;;;;;;;;;;5054369;28;20056;-66
2023/01/24 05:48:42;;;;;;;35.08;24.35;;;;;;;;;;5054584;28;20051;-66
2023/01/24 05:51:09;;;;;;;32.53;23.85;;;;;;;;;;5054406;28;20052;-66
2023/01/24 05:53:37;;;;;;;34.75;25.42;;;;;;;;;;5055334;28;20076;-65
2023/01/24 05:56:05;;;;;;;34.40;24.35;;;;;;;;;;5054210;28;20051;-65
2023/01/24 05:58:34;;;;;;;33.58;24.38;;;;;;;;;;5054116;28;20128;-65
2023/01/24 06:01:00;;;;;;;36.58;25.55;;;;;;;;;;5054006;28;20045;-65
2023/01/24 06:03:26;;;;;;;34.50;24.77;;;;;;;;;;5054297;28;20052;-65
2023/01/24 06:05:54;;;;;;;32.95;24.73;;;;;;;;;;5053838;28;20496;-65
2023/01/24 06:08:21;;;;;;;34.03;24.10;;;;;;;;;;5054077;28;20106;-65
2023/01/24 06:10:47;;;;;;;34.17;24.70;;;;;;;;;;5054022;28;20044;-66
2023/01/24 06:13:14;;;;;;;32.95;24.42;;;;;;;;;;5053870;28;20386;-66
2023/01/24 06:15:41;;;;;;;33.25;24.83;;;;;;;;;;5054029;28;20145;-66
2023/01/24 06:18:12;;;;;;;30.30;23.88;;;;;;;;;;5053729;28;20055;-65
2023/01/24 06:20:38;;;;;;;32.63;22.45;;;;;;;;;;5053531;28;20497;-66
2023/01/24 06:23:06;;;;;;;32.78;23.20;;;;;;;;;;5054035;28;20507;-65
2023/01/24 06:25:32;;;;;;;33.63;23.55;;;;;;;;;;5049045;28;20096;-66
2023/01/24 06:27:59;;;;;;;35.53;24.50;;;;;;;;;;5052889;28;20079;-65
2023/01/24 06:30:26;;;;;;;33.08;23.80;;;;;;;;;;5053726;28;20071;-66
2023/01/24 06:33:10;;;;;;;35.00;23.77;;;;;;;;;;5053259;28;20170;-66
2023/01/24 06:35:45;;;;;;;31.95;24.25;;;;;;;;;;5053480;28;20503;-66
2023/01/24 06:38:22;;;;;;;35.17;24.15;;;;;;;;;;5053439;28;20045;-66
2023/01/24 06:40:52;;;;;;;33.87;23.23;;;;;;;;;;5053406;28;20049;-65
2023/01/24 06:43:19;;;;;;;31.92;23.63;;;;;;;;;;5053508;28;20055;-66
2023/01/24 06:45:45;;;;;;;32.33;23.08;;;;;;;;;;5053481;28;20045;-66
2023/01/24 06:48:12;;;;;;;34.50;24.02;;;;;;;;;;5053479;28;20055;-66
2023/01/24 06:50:38;;;;;;;33.08;23.60;;;;;;;;;;5053126;28;20056;-66
2023/01/24 06:53:04;;;;;;;34.75;23.80;;;;;;;;;;5053041;28;20059;-66
2023/01/24 06:55:31;;;;;;;30.17;23.42;;;;;;;;;;5053022;28;20047;-66
2023/01/24 06:57:58;;;;;;;30.83;23.05;;;;;;;;;;5053209;28;20128;-66
2023/01/24 07:00:24;;;;;;;31.35;22.58;;;;;;;;;;5052853;28;20049;-66
2023/01/24 07:03:01;;;;;;;33.65;23.00;;;;;;;;;;5052940;28;20072;-66
2023/01/24 07:05:27;;;;;;;33.90;23.23;;;;;;;;;;5052842;28;20049;-65
2023/01/24 07:07:54;;;;;;;32.03;23.05;;;;;;;;;;5052679;28;20049;-65
2023/01/24 07:10:21;;;;;;;32.05;22.73;;;;;;;;;;5053029;28;20059;-66
2023/01/24 07:12:47;;;;;;;29.80;22.10;;;;;;;;;;5052924;28;20045;-66
2023/01/24 07:15:13;;;;;;;36.10;24.13;;;;;;;;;;5052619;28;20080;-66
2023/01/24 07:17:40;;;;;;;31.02;23.38;;;;;;;;;;5051304;28;20135;-65
2023/01/24 07:20:07;;;;;;;28.55;22.17;;;;;;;;;;5050755;28;20069;-69
2023/01/24 07:22:36;;;;;;;34.40;24.00;;;;;;;;;;5052223;28;20049;-66
2023/01/24 07:25:02;;;;;;;33.25;23.65;;;;;;;;;;5052552;28;20132;-66
2023/01/24 07:27:29;;;;;;;34.90;23.98;;;;;;;;;;5052611;28;20405;-66
2023/01/24 07:29:55;;;;;;;32.80;23.38;;;;;;;;;;5052153;28;20044;-66
2023/01/24 07:32:21;;;;;;;32.53;23.15;;;;;;;;;;5052001;28;20147;-65
2023/01/24 07:34:48;;;;;;;34.10;24.23;;;;;;;;;;5052108;28;20048;-65
2023/01/24 07:37:16;;;;;;;32.10;21.67;;;;;;;;;;5051680;28;20071;-68
2023/01/24 07:39:42;;;;;;;38.47;23.40;;;;;;;;;;5027915;28;20049;-66
2023/01/24 07:42:10;;;;;;;28.35;21.95;;;;;;;;;;5031962;28;20053;-66
2023/01/24 07:44:36;;;;;;;30.80;22.20;;;;;;;;;;5045385;28;20049;-65
2023/01/24 07:47:03;;;;;;;32.53;22.83;;;;;;;;;;5052022;28;20049;-65
2023/01/24 07:49:29;;;;;;;33.15;23.65;;;;;;;;;;5051061;28;20049;-66
2023/01/24 07:51:56;;;;;;;33.35;22.90;;;;;;;;;;5051632;28;20047;-66
2023/01/24 07:54:22;;;;;;;35.58;23.27;;;;;;;;;;5051894;28;20485;-66
2023/01/24 07:56:48;;;;;;;33.05;22.65;;;;;;;;;;5052140;28;20049;-66
2023/01/24 07:59:15;;;;;;;37.38;22.80;;;;;;;;;;5052041;28;20051;-66
2023/01/24 08:01:43;;;;;;;;;;;;;;;;;;5052580;28;20123;-66
2023/01/24 08:04:09;;;;;;;36.50;22.95;;;;;;;;;;5051610;28;20037;-66
2023/01/24 08:06:37;;;;;;;34.40;22.95;;;;;;;;;;5051816;28;20049;-66
2023/01/24 08:09:04;;;;;;;31.45;22.13;;;;;;;;;;5051911;28;20073;-66
2023/01/24 08:11:30;;;;;;;32.97;22.88;;;;;;;;;;5051687;28;20055;-66
2023/01/24 08:13:56;;;;;;;34.35;22.63;;;;;;;;;;5051445;28;20057;-66
2023/01/24 08:16:25;;;;;;;32.30;22.25;;;;;;;;;;5051539;28;20045;-66
2023/01/24 08:18:52;;;;;;;34.92;22.98;;;;;;;;;;5051787;28;20041;-66
2023/01/24 08:21:19;;;;;;;29.65;20.45;;;;;;;;;;5051497;28;20084;-67
2023/01/24 08:23:45;;;;;;;28.85;21.35;;;;;;;;;;5051670;28;20059;-66
2023/01/24 08:26:12;;;;;;;33.78;22.58;;;;;;;;;;5051474;28;20056;-67
2023/01/24 08:28:38;;;;;;;44.67;30.17;;;;;;;;;;5051383;28;20052;-66
2023/01/24 08:31:04;;;;;;;45.30;29.90;;;;;;;;;;5051189;28;20508;-66
2023/01/24 08:33:37;;;;;;;46.55;36.65;;;;;;;;;;5050378;28;20049;-66
2023/01/24 08:36:04;;;;;;;33.22;24.38;;;;;;;;;;5051259;28;20045;-66
2023/01/24 08:38:30;;;;;;;36.35;25.10;;;;;;;;;;5051509;28;20063;-66
2023/01/24 08:40:57;;;;;;;33.08;24.40;;;;;;;;;;5050095;28;20579;-66
2023/01/24 08:43:23;;;;;;;38.80;25.60;;;;;;;;;;5051273;28;20143;-66
2023/01/24 08:45:53;;;;;;;33.33;24.98;;;;;;;;;;5051252;28;20049;-66
2023/01/24 08:48:19;;;;;;;35.75;25.00;;;;;;;;;;5051468;28;20052;-66
2023/01/24 08:50:45;;;;;;;36.92;24.48;;;;;;;;;;5051079;28;20132;-66
2023/01/24 08:53:12;;;;;;;35.05;26.23;;;;;;;;;;5051296;28;20049;-66
2023/01/24 08:55:38;;;;;;;35.17;25.77;;;;;;;;;;5054399;28;20091;-66
2023/01/24 08:58:05;;;;;;;38.83;26.00;;;;;;;;;;5055405;28;20389;-66
2023/01/24 09:00:31;;;;;;;32.80;23.85;;;;;;;;;;5055121;28;20508;-66
2023/01/24 09:03:01;;;;;;;34.92;24.65;;;;;;;;;;5055240;28;20123;-67
2023/01/24 09:05:28;;;;;;;32.13;23.85;;;;;;;;;;5053890;28;20106;-67
2023/01/24 09:07:55;;;;;;;33.33;22.58;;;;;;;;;;5055013;28;20057;-67
2023/01/24 09:10:21;;;;;;;31.35;22.42;;;;;;;;;;5053987;28;20051;-67
2023/01/24 09:12:47;;;;;;;29.13;23.15;;;;;;;;;;5054816;28;20075;-67
2023/01/24 09:15:14;;;;;;;25.67;22.05;;;;;;;;;;5055204;28;20090;-67
2023/01/24 09:17:40;;;;;;;29.83;23.30;;;;;;;;;;5054729;28;20529;-67
2023/01/24 09:20:07;;;;;;;32.63;27.23;;;;;;;;;;5053355;28;20045;-68
2023/01/24 09:22:33;;;;;;;32.53;27.95;;;;;;;;;;5054679;28;20128;-67
2023/01/24 09:25:00;;;;;;;29.75;24.17;;;;;;;;;;5054685;28;20055;-67
2023/01/24 09:27:26;;;;;;;30.42;25.42;;;;;;;;;;5054613;28;20044;-67
2023/01/24 09:29:53;;;;;;;27.75;24.27;;;;;;;;;;5054579;28;20124;-67
2023/01/24 09:32:19;;;;;;;29.67;24.15;;;;;;;;;;5054873;28;20041;-67
2023/01/24 09:34:47;;;;;;;29.50;23.63;;;;;;;;;;5054754;28;20436;-67
2023/01/24 09:37:20;;;;;;;64.50;36.55;;;;;;;;;;5054634;28;20055;-67
2023/01/24 09:39:47;;;;;;;55.17;34.83;;;;;;;;;;5054323;28;20045;-67
2023/01/24 09:42:16;;;;;;;30.25;23.80;;;;;;;;;;5054668;28;20056;-68
2023/01/24 09:44:45;;;;;;;26.50;22.67;;;;;;;;;;5054279;28;20512;-67
2023/01/24 09:47:17;;;;;;;28.35;23.90;;;;;;;;;;5053380;28;20049;-68
2023/01/24 09:49:52;;;;;;;28.10;23.27;;;;;;;;;;5054528;28;20055;-67
2023/01/24 09:52:24;;;;;;;30.30;23.95;;;;;;;;;;5054497;28;20172;-67
2023/01/24 09:54:56;;;;;;;34.60;29.80;;;;;;;;;;5054318;28;20071;-67
2023/01/24 09:57:26;;;;;;;33.10;26.90;;;;;;;;;;5054542;28;20124;-67
2023/01/24 09:59:55;;;;;;;36.00;26.25;;;;;;;;;;5052995;28;20568;-67
2023/01/24 10:02:23;;;;;;;32.25;26.65;;;;;;;;;;5053992;28;20548;-67
2023/01/24 10:04:50;;;;;;;26.85;23.25;;;;;;;;;;5052761;28;20520;-67
2023/01/24 10:07:20;;;;;;;27.90;23.63;;;;;;;;;;5053128;28;20148;-68
2023/01/24 10:09:46;;;;;;;29.05;23.90;;;;;;;;;;5053951;28;20132;-68
2023/01/24 10:12:15;;;;;;;27.38;23.30;;;;;;;;;;5053758;28;20051;-69
2023/01/24 10:14:47;;;;;;;29.48;22.75;;;;;;;;;;5053969;28;20045;-68
2023/01/24 10:17:29;;;;;;;26.20;23.23;;;;;;;;;;5053701;28;20052;-68
2023/01/24 10:19:58;;;;;;;29.55;25.40;;;;;;;;;;5052762;28;20048;-68
2023/01/24 10:22:40;;;;;;;30.58;26.42;;;;;;;;;;5053531;28;20227;-68
2023/01/24 10:25:12;;;;;;;29.42;25.02;;;;;;;;;;5053790;28;20052;-68
2023/01/24 10:27:41;;;;;;;25.00;21.83;;;;;;;;;;5053966;28;20049;-68
2023/01/24 10:30:16;;;;;;;26.80;23.45;;;;;;;;;;5053806;28;20049;-68
2023/01/24 10:32:43;;;;;;;26.58;23.58;;;;;;;;;;5052338;28;20088;-68
2023/01/24 10:35:10;;;;;;;;;;;;;;;;;;5052959;28;20067;-68
2023/01/24 10:37:38;;;;;;;30.45;27.17;;;;;;;;;;5053701;28;20007;-68
2023/01/24 10:40:10;;;;;;;29.52;25.27;;;;;;;;;;5052469;28;20041;-68
2023/01/24 10:42:36;;;;;;;28.27;25.35;;;;;;;;;;5053371;28;20128;-68
2023/01/24 10:45:15;;;;;;;27.70;24.75;;;;;;;;;;5053511;28;20049;-69
2023/01/24 10:47:44;;;;;;;28.52;25.52;;;;;;;;;;5053600;28;20132;-69
2023/01/24 10:50:13;;;;;;;27.42;24.65;;;;;;;;;;5053263;28;20120;-69
2023/01/24 10:52:39;;;;;;;27.70;24.80;;;;;;;;;;5053306;28;20047;-69
2023/01/24 10:55:41;;;;;;;25.50;23.02;;;;;;;;;;5053321;28;20149;-69
2023/01/24 10:58:20;;;;;;;23.67;21.48;;;;;;;;;;5050618;28;20159;-69
2023/01/24 11:00:54;;;;;;;23.50;21.40;;;;;;;;;;5052595;28;20119;-69
2023/01/24 11:03:26;;;;;;;24.13;21.85;;;;;;;;;;5052953;28;20052;-69
2023/01/24 11:05:53;;;;;;;22.27;20.25;;;;;;;;;;5053006;28;20075;-69
2023/01/24 11:08:25;;;;;;;21.98;19.75;;;;;;;;;;5051861;28;20084;-69
2023/01/24 11:10:53;;;;;;;23.02;20.73;;;;;;;;;;5052695;28;20051;-68
2023/01/24 11:13:22;;;;;;;22.60;20.42;;;;;;;;;;5052959;28;20088;-69
2023/01/24 11:15:51;;;;;;;24.38;22.08;;;;;;;;;;5051318;28;20040;-69
2023/01/24 11:18:23;;;;;;;22.58;20.48;;;;;;;;;;5052787;28;20128;-69
2023/01/24 11:21:07;;;;;;;23.42;21.20;;;;;;;;;;5051203;28;20049;-69
2023/01/24 11:23:34;;;;;;;22.73;20.65;;;;;;;;;;5052623;28;20462;-69
2023/01/24 11:26:03;;;;;;;24.63;22.23;;;;;;;;;;5052688;28;20053;-68
2023/01/24 11:28:31;;;;;;;23.08;20.83;;;;;;;;;;5051517;28;20558;-69
2023/01/24 11:31:03;;;;;;;23.88;21.60;;;;;;;;;;5052300;28;20128;-69
2023/01/24 11:33:41;;;;;;;23.77;21.48;;;;;;;;;;5051214;28;20055;-69
2023/01/24 11:36:21;;;;;;;25.17;22.88;;;;;;;;;;5052310;28;20059;-69
2023/01/24 11:38:49;;;;;;;23.92;21.58;;;;;;;;;;5052546;28;20049;-69
2023/01/24 11:41:26;;;;;;;24.25;21.95;;;;;;;;;;5052293;28;20053;-69
2023/01/24 11:43:59;;;;;;;23.75;21.55;;;;;;;;;;5050910;28;20129;-68
2023/01/24 11:46:44;;;;;;;24.02;21.83;;;;;;;;;;5052366;28;20052;-68
2023/01/24 11:49:13;;;;;;;22.95;20.60;;;;;;;;;;5051979;28;20136;-69
2023/01/24 11:51:55;;;;;;;23.92;21.73;;;;;;;;;;5052126;28;20048;-69
2023/01/24 11:54:31;;;;;;;22.98;20.88;;;;;;;;;;5052236;28;20045;-69
2023/01/24 11:57:01;;;;;;;22.30;20.25;;;;;;;;;;5052149;28;20049;-68
2023/01/24 11:59:31;;;;;;;25.55;23.13;;;;;;;;;;5051899;28;20456;-69
2023/01/24 12:02:03;;;;;;;28.25;25.45;;;;;;;;;;5051611;28;20063;-69
2023/01/24 12:04:35;;;;;;;30.25;26.98;;;;;;;;;;5052140;28;20386;-68
2023/01/24 12:07:22;;;;;;;29.70;26.60;;;;;;;;;;5051857;28;20078;-68
2023/01/24 12:09:48;;;;;;;;;;;;;;;;;;5052070;28;20049;-68
2023/01/24 12:12:15;;;;;;;24.60;22.20;;;;;;;;;;5051557;28;20281;-68
2023/01/24 12:14:50;;;;;;;24.48;22.25;;;;;;;;;;5051863;28;20053;-69
2023/01/24 12:17:35;;;;;;;19.83;18.15;;;;;;;;;;5051713;28;20485;-68
2023/01/24 12:20:19;;;;;;;18.30;16.70;;;;;;;;;;5050358;28;20549;-69
2023/01/24 12:22:58;;;;;;;18.33;16.73;;;;;;;;;;5051524;28;20053;-68
2023/01/24 12:25:31;;;;;;;18.27;16.58;;;;;;;;;;5051540;28;20087;-68
2023/01/24 12:28:00;;;;;;;18.35;16.60;;;;;;;;;;5051461;28;20128;-68
2023/01/24 12:30:40;;;;;;;16.92;15.50;;;;;;;;;;5051337;28;20048;-68
2023/01/24 12:33:22;;;;;;;17.75;16.20;;;;;;;;;;5051675;28;20052;-68
2023/01/24 12:35:54;;;;;;;16.88;15.38;;;;;;;;;;5050538;28;20041;-68
2023/01/24 12:38:32;;;;;;;14.63;13.43;;;;;;;;;;5051768;28;20050;-68
2023/01/24 12:41:02;;;;;;;12.20;11.07;;;;;;;;;;5051293;28;20560;-68
2023/01/24 12:43:52;;;;;;;11.88;10.90;;;;;;;;;;5051306;28;20136;-68
2023/01/24 12:46:18;;;;;;;10.00;9.02;;;;;;;;;;5051324;28;20493;-68
2023/01/24 12:48:50;;;;;;;9.20;8.40;;;;;;;;;;5051439;28;20044;-68
2023/01/24 12:51:22;;;;;;;11.48;10.27;;;;;;;;;;5051467;28;20065;-68
2023/01/24 12:53:51;;;;;;;6.82;6.22;;;;;;;;;;5051456;28;20041;-68
2023/01/24 12:56:21;;;;;;;9.85;9.00;;;;;;;;;;5051368;28;20055;-68
2023/01/24 12:58:49;;;;;;;9.77;8.98;;;;;;;;;;5051499;28;20052;-68
2023/01/24 13:01:15;;;;;;;13.73;12.43;;;;;;;;;;5051434;28;20060;-68
2023/01/24 13:03:49;;;;;;;9.40;8.57;;;;;;;;;;5049885;28;20532;-67
2023/01/24 13:06:18;;;;;;;8.68;7.97;;;;;;;;;;5051043;28;20056;-68
2023/01/24 13:08:50;;;;;;;7.90;7.20;;;;;;;;;;5051042;28;20052;-68
2023/01/24 13:11:17;;;;;;;30.52;17.20;;;;;;;;;;5051417;28;20052;-68
2023/01/24 13:13:47;;;;;;;60.80;31.17;;;;;;;;;;5049745;28;20084;-68
2023/01/24 13:16:14;;;;;;;49.58;24.90;;;;;;;;;;5051356;28;20048;-68
2023/01/24 13:18:40;;;;;;;22.88;14.57;;;;;;;;;;5051422;28;20049;-68
2023/01/24 13:21:30;;;;;;;14.38;10.90;;;;;;;;;;5050711;28;20056;-68
2023/01/24 13:24:05;;;;;;;13.45;10.63;;;;;;;;;;5049681;28;20534;-68
2023/01/24 13:26:40;;;;;;;8.75;7.85;;;;;;;;;;5050979;28;20049;-68
2023/01/24 13:29:15;;;;;;;23.77;15.02;;;;;;;;;;5051147;28;20067;-68
2023/01/24 13:32:00;;;;;;;30.20;18.02;;;;;;;;;;5051138;28;20082;-68
2023/01/24 13:34:30;;;;;;;10.23;9.10;;;;;;;;;;5051090;28;20049;-68
2023/01/24 13:36:58;;;;;;;8.48;7.57;;;;;;;;;;5051110;28;20132;-68
2023/01/24 13:39:29;;;;;;;8.38;7.68;;;;;;;;;;5050779;28;20063;-68
2023/01/24 13:42:18;;;;;;;8.00;7.30;;;;;;;;;;5051592;28;20063;-68
2023/01/24 13:44:44;;;;;;;10.20;8.73;;;;;;;;;;5054410;28;20556;-68
2023/01/24 13:47:15;;;;;;;11.07;9.98;;;;;;;;;;5054368;28;20140;-68
2023/01/24 13:49:54;;;;;;;7.78;7.07;;;;;;;;;;5053327;28;20406;-68
2023/01/24 13:52:33;;;;;;;7.68;6.97;;;;;;;;;;5054464;28;20080;-68
2023/01/24 13:55:00;;;;;;;13.68;8.85;;;;;;;;;;5052857;28;20556;-68
2023/01/24 13:57:26;;;;;;;;;;;;;;;;;;5054646;28;20132;-68
2023/01/24 14:00:19;;;;;;;9.07;8.23;;;;;;;;;;5052774;28;19925;-68
2023/01/24 14:02:53;;;;;;;7.65;6.88;;;;;;;;;;5051841;28;20521;-68
2023/01/24 14:05:28;;;;;;;7.57;6.47;;;;;;;;;;5054271;28;20059;-68
2023/01/24 14:07:59;;;;;;;12.23;8.80;;;;;;;;;;5054137;28;20055;-68
2023/01/24 14:10:33;;;;;;;7.55;6.95;;;;;;;;;;5053918;28;20140;-68
2023/01/24 14:12:59;;;;;;;7.82;6.57;;;;;;;;;;5053805;28;20064;-68
2023/01/24 14:15:39;;;;;;;12.13;8.00;;;;;;;;;;5054220;28;20055;-68
2023/01/24 14:18:24;;;;;;;7.95;7.00;;;;;;;;;;5054128;28;20056;-68
2023/01/24 14:20:51;;;;;;;12.02;6.88;;;;;;;;;;5053709;28;20080;-68
2023/01/24 14:23:23;;;;;;;6.95;6.22;;;;;;;;;;5053646;28;20048;-68
2023/01/24 14:25:54;;;;;;;10.60;6.57;;;;;;;;;;5053873;28;20049;-68
2023/01/24 14:28:51;;;;;;;6.30;5.82;;;;;;;;;;5053686;28;20107;-68
2023/01/24 14:31:30;;;;;;;6.90;6.22;;;;;;;;;;5047759;28;20099;-68
2023/01/24 14:34:06;;;;;;;7.53;6.75;;;;;;;;;;5052596;28;20142;-68
2023/01/24 14:36:38;;;;;;;7.28;6.68;;;;;;;;;;5053745;28;20431;-68
2023/01/24 14:39:24;;;;;;;7.40;6.70;;;;;;;;;;5053497;28;20051;-68
2023/01/24 14:41:55;;;;;;;7.68;6.88;;;;;;;;;;5053383;28;20041;-68
2023/01/24 14:44:32;;;;;;;8.45;7.05;;;;;;;;;;5053577;28;20057;-68
2023/01/24 14:46:59;;;;;;;;;;;;;;;;;;5053735;28;20489;-68
2023/01/24 14:49:35;;;;;;;7.90;7.30;;;;;;;;;;5053574;28;19998;-68
2023/01/24 14:52:14;;;;;;;7.93;7.13;;;;;;;;;;5052987;28;20053;-68
2023/01/24 14:54:46;;;;;;;9.05;6.95;;;;;;;;;;5053118;28;20537;-68
2023/01/24 14:57:20;;;;;;;7.72;7.03;;;;;;;;;;5052030;28;20131;-68
2023/01/24 14:59:57;;;;;;;8.13;7.43;;;;;;;;;;5053100;28;20484;-68
2023/01/24 15:02:23;;;;;;;9.77;8.45;;;;;;;;;;5052923;28;20037;-68
2023/01/24 15:04:50;;;;;;;9.70;8.40;;;;;;;;;;5053168;28;20084;-68
2023/01/24 15:07:16;;;;;;;13.23;9.90;;;;;;;;;;5051543;28;20530;-68
2023/01/24 15:09:43;;;;;;;12.60;10.18;;;;;;;;;;5053164;28;20056;-68
2023/01/24 15:12:13;;;;;;;10.63;9.43;;;;;;;;;;5052956;28;20053;-68